Tabor City, North Carolina
Current Conditions -  °F | °C
As of 12:55 PM on Friday 19 Dec 2014 (Local Time) from KCPC Reporting Station
Clear Clear  
Wind Chill: 55°   Ceiling: Unl
Heat Index: 55°   Visibility: 10mi
Dew Point: 23°   Wind: 5mph
Humidity: 29%   Direction: 260°W
Pressure: 30.13"   Gusts: NA
Location:  34.15°N, 78.88°W
Report Text: KCPC 191755Z AUTO 26004KT 10SM CLR 13/M05 A3013 RMK AO2 T01291048 10132 20002
Loading
Personal Weather Stations






























Interactive Weather Map New forecast layout! Learn more

10-Day Weather Forecast

Advertisements
Track Severe Weather on mobile